Time;durP1;ratioP1;P1;durP2;ratioP2;P2;SDS_P1;SDS_P2;PMS_P1;PMS_P2;Temp;Humidity;BMP_temperature;BMP_pressure;BME280_temperature;BME280_humidity;BME280_pressure;Samples;Min_cycle;Max_cycle;Signal;HPM_P1;HPM_P2
2022/11/02 00:02:07;;;;;;;8.73;3.50;;;11.70;98.90;;;;;;4923083;29;20051;-68
2022/11/02 00:04:33;;;;;;;5.93;3.75;;;11.60;98.90;;;;;;4922204;29;20500;-69
2022/11/02 00:06:59;;;;;;;3.22;2.80;;;11.60;98.80;;;;;;4924857;29;20155;-69
2022/11/02 00:09:24;;;;;;;5.68;3.15;;;11.60;98.70;;;;;;4922212;29;20028;-69
2022/11/02 00:11:50;;;;;;;4.50;3.58;;;11.60;98.70;;;;;;4924887;29;20039;-68
2022/11/02 00:14:16;;;;;;;4.28;3.30;;;11.60;98.60;;;;;;4924624;29;20035;-69
2022/11/02 00:16:41;;;;;;;5.65;3.30;;;11.50;98.60;;;;;;4921975;29;20055;-69
2022/11/02 00:19:08;;;;;;;6.28;3.70;;;11.50;98.50;;;;;;4920343;29;20035;-68
2022/11/02 00:21:35;;;;;;;5.25;3.50;;;11.50;98.50;;;;;;4925039;29;20062;-69
2022/11/02 00:24:01;;;;;;;6.80;3.75;;;11.50;98.50;;;;;;4920394;29;20107;-69
2022/11/02 00:26:27;;;;;;;7.05;4.35;;;11.40;98.50;;;;;;4922936;29;20049;-68
2022/11/02 00:28:54;;;;;;;4.60;3.13;;;11.40;98.60;;;;;;4923917;29;20040;-68
2022/11/02 00:31:20;;;;;;;6.00;3.25;;;11.40;98.80;;;;;;4923571;29;20039;-69
2022/11/02 00:33:45;;;;;;;9.60;3.78;;;11.40;98.60;;;;;;4927308;29;20020;-69
2022/11/02 00:36:11;;;;;;;5.32;3.70;;;11.40;98.70;;;;;;4921308;29;20027;-69
2022/11/02 00:38:37;;;;;;;4.57;3.13;;;11.30;98.70;;;;;;4922656;29;20734;-69
2022/11/02 00:41:03;;;;;;;5.50;2.90;;;11.30;98.70;;;;;;4922683;29;20036;-69
2022/11/02 00:43:29;;;;;;;3.80;2.70;;;11.30;98.50;;;;;;4922820;29;20055;-69
2022/11/02 00:45:55;;;;;;;9.00;2.92;;;11.30;98.50;;;;;;4922403;29;20048;-69
2022/11/02 00:48:21;;;;;;;4.80;2.90;;;11.30;98.50;;;;;;4925381;29;20032;-69
2022/11/02 00:50:47;;;;;;;5.13;3.20;;;11.20;98.60;;;;;;4923318;29;20038;-69
2022/11/02 00:53:13;;;;;;;4.93;2.80;;;11.20;98.70;;;;;;4921884;29;20039;-69
2022/11/02 00:55:45;;;;;;;7.18;3.58;;;11.20;98.70;;;;;;4932913;29;20028;-69
2022/11/02 00:58:10;;;;;;;4.78;2.67;;;11.20;98.60;;;;;;4922116;29;20853;-69
2022/11/02 01:00:36;;;;;;;5.63;2.55;;;11.20;98.70;;;;;;4919313;29;20024;-69
2022/11/02 01:03:02;;;;;;;4.55;2.83;;;11.20;98.70;;;;;;4920701;29;20155;-69
2022/11/02 01:05:29;;;;;;;4.90;2.70;;;11.20;98.50;;;;;;4922904;29;20477;-69
2022/11/02 01:07:55;;;;;;;5.93;2.58;;;11.10;98.50;;;;;;4922462;29;20899;-69
2022/11/02 01:10:22;;;;;;;5.68;2.78;;;11.10;98.30;;;;;;4922930;29;20571;-69
2022/11/02 01:12:48;;;;;;;6.07;2.30;;;11.10;98.30;;;;;;4934925;29;20039;-69
2022/11/02 01:15:13;;;;;;;3.35;2.65;;;11.10;98.30;;;;;;4925725;29;20484;-69
2022/11/02 01:17:39;;;;;;;2.50;2.15;;;11.10;98.40;;;;;;4919746;29;20584;-69
2022/11/02 01:20:06;;;;;;;3.80;2.70;;;11.10;98.30;;;;;;4919836;29;20527;-69
2022/11/02 01:22:32;;;;;;;4.30;2.10;;;11.10;98.20;;;;;;4920005;29;20514;-69
2022/11/02 01:24:58;;;;;;;3.88;2.10;;;11.10;98.20;;;;;;4922471;29;20036;-69
2022/11/02 01:27:25;;;;;;;3.72;2.00;;;11.10;98.40;;;;;;4921140;29;20409;-69
2022/11/02 01:29:51;;;;;;;5.85;2.53;;;11.10;98.70;;;;;;4922204;29;20031;-69
2022/11/02 01:32:17;;;;;;;4.63;2.38;;;11.00;98.10;;;;;;4918685;29;20832;-70
2022/11/02 01:34:42;;;;;;;3.38;1.77;;;11.00;97.90;;;;;;4922769;29;20027;-69
2022/11/02 01:37:09;;;;;;;5.95;1.83;;;11.00;97.80;;;;;;4918425;29;20032;-69
2022/11/02 01:39:35;;;;;;;4.32;1.95;;;11.00;97.80;;;;;;4934421;29;20032;-69
2022/11/02 01:42:01;;;;;;;4.30;1.92;;;10.90;97.90;;;;;;4920701;29;20534;-69
2022/11/02 01:44:30;;;;;;;3.88;1.92;;;11.00;97.80;;;;;;4922231;29;20138;-69
2022/11/02 01:47:04;;;;;;;3.17;1.92;;;11.00;97.70;;;;;;4923737;29;20044;-69
2022/11/02 01:49:33;;;;;;;2.60;1.80;;;10.90;97.70;;;;;;4922684;29;20731;-70
2022/11/02 01:52:09;;;;;;;3.42;1.73;;;10.90;97.80;;;;;;4919754;29;20036;-69
2022/11/02 01:54:47;;;;;;;5.60;2.15;;;10.90;97.70;;;;;;4921481;29;20063;-69
2022/11/02 01:57:18;;;;;;;3.83;1.60;;;10.90;97.80;;;;;;4919921;29;20032;-68
2022/11/02 01:59:53;;;;;;;3.35;1.80;;;10.90;97.90;;;;;;4917797;29;20738;-69
2022/11/02 02:02:21;;;;;;;5.18;1.63;;;10.90;97.70;;;;;;4936099;29;20064;-69
2022/11/02 02:04:51;;;;;;;4.53;1.92;;;10.90;97.60;;;;;;4924470;29;20031;-71
2022/11/02 02:07:18;;;;;;;4.88;1.80;;;10.90;97.40;;;;;;4922185;29;20035;-72
2022/11/02 02:09:44;;;;;;;2.65;1.70;;;10.80;97.30;;;;;;4931939;29;20044;-71
2022/11/02 02:12:11;;;;;;;3.20;1.60;;;10.80;97.40;;;;;;4919678;29;20035;-72
2022/11/02 02:14:37;;;;;;;3.78;1.98;;;10.80;97.40;;;;;;4921231;29;20074;-71
2022/11/02 02:17:09;;;;;;;4.13;2.17;;;10.70;97.40;;;;;;4923120;29;20055;-72
2022/11/02 02:19:54;;;;;;;3.17;1.80;;;10.70;97.40;;;;;;4919152;29;20074;-72
2022/11/02 02:22:45;;;;;;;2.58;1.42;;;10.70;97.40;;;;;;4919674;29;20032;-71
2022/11/02 02:25:41;;;;;;;3.10;1.75;;;10.70;97.50;;;;;;4921041;29;20079;-71
2022/11/02 02:28:25;;;;;;;3.27;1.90;;;10.70;97.60;;;;;;4922119;29;20504;-71
2022/11/02 02:31:22;;;;;;;4.43;1.55;;;10.70;97.60;;;;;;4918960;29;20932;-71
2022/11/02 02:34:35;;;;;;;4.97;1.90;;;10.70;97.70;;;;;;4920665;29;20031;-71
2022/11/02 02:37:12;;;;;;;4.63;1.40;;;10.70;97.70;;;;;;4883331;29;20881;-72
2022/11/02 02:39:52;;;;;;;3.00;1.50;;;10.70;97.60;;;;;;4921360;29;20507;-71
2022/11/02 02:42:29;;;;;;;6.03;1.88;;;10.70;97.60;;;;;;4921981;29;20075;-72
2022/11/02 02:45:16;;;;;;;5.07;1.70;;;10.70;97.60;;;;;;4922248;29;20046;-72
2022/11/02 02:48:01;;;;;;;2.03;1.30;;;10.70;97.50;;;;;;4923022;29;20031;-71
2022/11/02 02:50:34;;;;;;;4.10;1.33;;;10.70;97.40;;;;;;4935407;29;20048;-71
2022/11/02 02:53:02;;;;;;;6.47;1.95;;;10.70;97.50;;;;;;4919671;29;20046;-71
2022/11/02 02:55:33;;;;;;;2.75;1.25;;;10.70;97.30;;;;;;4920221;29;20047;-71
2022/11/02 02:58:01;;;;;;;3.10;1.38;;;10.70;97.20;;;;;;4922267;29;20191;-71
2022/11/02 03:00:29;;;;;;;2.83;1.30;;;10.70;97.10;;;;;;4920350;29;20032;-72
2022/11/02 03:02:59;;;;;;;3.55;1.40;;;10.70;97.00;;;;;;4923334;29;20067;-72
2022/11/02 03:05:32;;;;;;;3.70;1.02;;;10.70;97.00;;;;;;4919323;29;20044;-72
2022/11/02 03:08:05;;;;;;;2.67;1.27;;;10.70;96.80;;;;;;4919358;29;20513;-72
2022/11/02 03:10:41;;;;;;;5.57;1.27;;;10.70;96.80;;;;;;4932977;29;20032;-72
2022/11/02 03:13:28;;;;;;;5.60;1.20;;;10.70;96.80;;;;;;4922128;29;20043;-71
2022/11/02 03:16:00;;;;;;;6.15;1.40;;;10.70;96.90;;;;;;4920920;29;20082;-72
2022/11/02 03:19:01;;;;;;;4.80;1.67;;;10.80;96.40;;;;;;4936153;29;20607;-71
2022/11/02 03:21:43;;;;;;;4.80;1.40;;;10.80;96.40;;;;;;4922464;29;20127;-72
2022/11/02 03:24:33;;;;;;;3.08;1.27;;;10.80;96.50;;;;;;4915540;29;20040;-72
2022/11/02 03:27:12;;;;;;;5.32;1.50;;;10.80;96.30;;;;;;4915984;29;20516;-72
2022/11/02 03:29:50;;;;;;;2.70;1.20;;;10.80;96.20;;;;;;4922165;29;20468;-72
2022/11/02 03:32:48;;;;;;;5.85;1.20;;;10.80;96.00;;;;;;4909948;29;20039;-72
2022/11/02 03:35:19;;;;;;;4.70;1.40;;;10.80;95.70;;;;;;4924077;29;20802;-71
2022/11/02 03:37:54;;;;;;;2.17;1.08;;;10.80;95.50;;;;;;4925294;29;20031;-72
2022/11/02 03:40:42;;;;;;;3.90;1.42;;;10.90;95.50;;;;;;4923556;29;20207;-72
2022/11/02 03:43:10;;;;;;;6.93;1.30;;;10.80;95.60;;;;;;4918542;29;20036;-72
2022/11/02 03:45:41;;;;;;;3.05;1.08;;;10.80;95.60;;;;;;4934195;29;20044;-72
2022/11/02 03:48:10;;;;;;;7.80;1.60;;;10.80;95.60;;;;;;4903563;29;20056;-72
2022/11/02 03:50:40;;;;;;;4.57;1.02;;;10.70;95.40;;;;;;4924739;29;20043;-71
2022/11/02 03:53:11;;;;;;;4.72;1.00;;;10.80;95.70;;;;;;4938344;28;20040;-72
2022/11/02 03:55:43;;;;;;;4.80;1.05;;;10.80;95.80;;;;;;4939029;29;20023;-72
2022/11/02 03:58:10;;;;;;;2.90;1.15;;;10.80;95.60;;;;;;4925506;29;20059;-72
2022/11/02 04:01:07;;;;;;;4.68;1.35;;;10.90;95.60;;;;;;4925500;29;20083;-71
2022/11/02 04:03:37;;;;;;;5.07;1.30;;;10.80;95.50;;;;;;4918977;29;20122;-72
2022/11/02 04:06:03;;;;;;;4.70;1.10;;;10.80;95.50;;;;;;4922926;29;20139;-71
2022/11/02 04:08:38;;;;;;;4.60;1.30;;;10.80;95.50;;;;;;4927104;29;20139;-71
2022/11/02 04:16:42;;;;;;;9.90;2.13;;;10.80;95.40;;;;;;4927721;29;20032;-71
2022/11/02 04:19:26;;;;;;;4.82;1.05;;;10.80;95.40;;;;;;4919417;29;20075;-72
2022/11/02 04:27:26;;;;;;;5.15;1.25;;;10.70;95.50;;;;;;4926879;29;20614;-72
2022/11/02 04:29:52;;;;;;;5.85;1.10;;;10.70;95.30;;;;;;4924552;29;20043;-72
2022/11/02 04:33:31;;;;;;;8.38;1.40;;;10.70;95.40;;;;;;4920672;29;20066;-71
2022/11/02 04:35:08;;;;;;;3.70;1.25;;;10.70;95.40;;;;;;4918829;29;20119;-72
2022/11/02 04:40:28;;;;;;;5.75;1.30;;;10.70;95.40;;;;;;4933828;29;20067;-71
2022/11/02 04:42:55;;;;;;;2.78;1.02;;;10.60;95.20;;;;;;4917739;29;20046;-72
2022/11/02 04:45:21;;;;;;;3.47;1.77;;;10.60;95.40;;;;;;4937103;29;20040;-72
2022/11/02 04:47:47;;;;;;;3.58;1.02;;;10.60;95.40;;;;;;4927338;29;20478;-71
2022/11/02 04:50:14;;;;;;;3.10;0.90;;;10.50;95.40;;;;;;4934714;29;20038;-72
2022/11/02 04:52:40;;;;;;;3.65;1.50;;;10.60;95.40;;;;;;4922243;29;20082;-71
2022/11/02 04:55:08;;;;;;;10.15;2.05;;;10.60;95.20;;;;;;4923191;29;20747;-71
2022/11/02 04:57:34;;;;;;;6.72;1.40;;;10.50;95.20;;;;;;4919577;29;20028;-72
2022/11/02 05:00:00;;;;;;;7.70;1.83;;;10.50;95.30;;;;;;4921893;29;20038;-71
2022/11/02 05:02:28;;;;;;;7.00;1.70;;;10.60;95.30;;;;;;4917088;29;20792;-72
2022/11/02 05:04:55;;;;;;;4.63;1.25;;;10.50;95.10;;;;;;4922476;29;20032;-72
2022/11/02 05:07:21;;;;;;;3.38;1.20;;;10.50;95.30;;;;;;4920647;29;20035;-71
2022/11/02 05:09:47;;;;;;;8.20;1.20;;;10.50;95.40;;;;;;4922711;29;20051;-72
2022/11/02 05:12:14;;;;;;;6.20;1.35;;;10.50;95.60;;;;;;4921244;29;20040;-72
2022/11/02 05:14:39;;;;;;;5.45;1.30;;;10.50;95.60;;;;;;4922784;29;20091;-72
2022/11/02 05:17:06;;;;;;;4.57;1.02;;;10.40;95.50;;;;;;4922343;29;20031;-72
2022/11/02 05:19:34;;;;;;;7.85;1.80;;;10.40;95.70;;;;;;4922664;29;20031;-72
2022/11/02 05:22:01;;;;;;;8.40;2.25;;;10.40;95.60;;;;;;4922922;29;20063;-71
2022/11/02 05:24:28;;;;;;;3.90;1.10;;;10.50;95.70;;;;;;4920870;29;20040;-72
2022/11/02 05:26:54;;;;;;;4.38;1.02;;;10.50;95.70;;;;;;4921063;29;20038;-72
2022/11/02 05:29:22;;;;;;;9.60;1.35;;;10.50;95.80;;;;;;4931264;28;20034;-72
2022/11/02 05:31:48;;;;;;;3.92;1.15;;;10.50;95.90;;;;;;4922720;29;20091;-72
2022/11/02 05:34:15;;;;;;;5.55;1.13;;;10.50;95.60;;;;;;4927443;29;20039;-72
2022/11/02 05:36:41;;;;;;;3.78;1.55;;;10.50;95.50;;;;;;4919120;29;20028;-72
2022/11/02 05:39:06;;;;;;;9.80;1.40;;;10.50;95.40;;;;;;4925559;29;20131;-72
2022/11/02 05:41:33;;;;;;;3.47;1.17;;;10.60;95.40;;;;;;4920931;29;20701;-71
2022/11/02 05:43:58;;;;;;;11.45;1.73;;;10.60;95.20;;;;;;4920087;29;20511;-72
2022/11/02 05:46:27;;;;;;;6.53;1.80;;;10.60;95.30;;;;;;4921278;29;20038;-71
2022/11/02 05:48:52;;;;;;;7.03;1.48;;;10.60;95.00;;;;;;4925109;29;20040;-71
2022/11/02 05:51:18;;;;;;;6.80;1.92;;;10.50;94.90;;;;;;4921468;29;20046;-72
2022/11/02 05:53:44;;;;;;;11.30;1.25;;;10.50;95.20;;;;;;4918879;29;20373;-72
2022/11/02 05:56:10;;;;;;;7.65;1.42;;;10.50;95.20;;;;;;4920288;29;20036;-71
2022/11/02 05:58:36;;;;;;;4.95;1.70;;;10.40;95.30;;;;;;4920649;29;20060;-71
2022/11/02 06:01:04;;;;;;;8.32;1.58;;;10.40;95.20;;;;;;4920586;29;20893;-71
2022/11/02 06:03:31;;;;;;;9.68;1.70;;;10.40;95.40;;;;;;4921249;29;20032;-72
2022/11/02 06:06:04;;;;;;;4.25;1.40;;;10.40;95.40;;;;;;4923191;29;20076;-72
2022/11/02 06:08:37;;;;;;;5.25;1.20;;;10.40;95.20;;;;;;4920465;29;20024;-71
2022/11/02 06:11:13;;;;;;;5.85;1.40;;;10.40;95.20;;;;;;4923099;29;20042;-71
2022/11/02 06:13:39;;;;;;;7.18;1.42;;;10.40;95.40;;;;;;4920712;29;20103;-72
2022/11/02 06:16:08;;;;;;;7.57;1.63;;;10.40;95.30;;;;;;4923765;29;20673;-71
2022/11/02 06:18:35;;;;;;;7.97;1.98;;;10.40;95.30;;;;;;4920620;29;20083;-71
2022/11/02 06:21:01;;;;;;;4.68;1.40;;;10.40;95.30;;;;;;4921391;29;20079;-71
2022/11/02 06:23:27;;;;;;;6.20;1.40;;;10.50;95.20;;;;;;4921430;29;20039;-71
2022/11/02 06:25:57;;;;;;;7.28;2.08;;;10.50;95.10;;;;;;4922132;29;20050;-71
2022/11/02 06:28:23;;;;;;;8.20;1.90;;;10.50;95.00;;;;;;4921556;29;20036;-71
2022/11/02 06:30:50;;;;;;;6.28;1.77;;;10.50;94.90;;;;;;4921519;29;20083;-71
2022/11/02 06:33:17;;;;;;;5.15;1.52;;;10.50;94.90;;;;;;4919709;29;20032;-71
2022/11/02 06:35:48;;;;;;;5.18;1.63;;;10.40;95.00;;;;;;4918630;29;20110;-71
2022/11/02 06:38:14;;;;;;;12.40;1.98;;;10.40;95.30;;;;;;4934751;29;20467;-70
2022/11/02 06:40:40;;;;;;;9.23;2.25;;;10.40;95.40;;;;;;4918920;29;20036;-70
2022/11/02 06:43:07;;;;;;;11.80;1.98;;;10.40;95.10;;;;;;4920095;29;20032;-70
2022/11/02 06:45:32;;;;;;;4.68;1.80;;;10.40;95.30;;;;;;4919535;29;20036;-70
2022/11/02 06:47:58;;;;;;;8.15;1.90;;;10.40;95.30;;;;;;4922698;29;20042;-70
2022/11/02 06:50:24;;;;;;;7.90;1.40;;;10.40;95.20;;;;;;4918689;29;20497;-71
2022/11/02 06:52:50;;;;;;;8.82;1.75;;;10.40;95.30;;;;;;4921108;29;20098;-70
2022/11/02 06:55:17;;;;;;;4.70;1.50;;;10.40;95.60;;;;;;4921185;29;20028;-70
2022/11/02 06:57:43;;;;;;;8.38;1.88;;;10.40;95.40;;;;;;4919332;29;20032;-70
2022/11/02 07:00:16;;;;;;;8.43;2.15;;;10.40;95.50;;;;;;4922193;29;20042;-70
2022/11/02 07:02:43;;;;;;;5.95;1.40;;;10.40;95.50;;;;;;4919878;29;20040;-71
2022/11/02 07:05:09;;;;;;;3.65;1.13;;;10.50;95.40;;;;;;4923238;29;20044;-70
2022/11/02 07:07:35;;;;;;;10.32;1.52;;;10.50;95.50;;;;;;4919173;29;20040;-71
2022/11/02 07:10:01;;;;;;;10.02;1.98;;;10.60;95.70;;;;;;4924618;29;20809;-71
2022/11/02 07:12:27;;;;;;;13.10;1.45;;;10.60;95.60;;;;;;4923067;29;20035;-70
2022/11/02 07:14:52;;;;;;;8.38;1.90;;;10.70;95.60;;;;;;4939174;29;20032;-70
2022/11/02 07:17:18;;;;;;;4.22;1.40;;;10.90;95.70;;;;;;4924722;29;20059;-70
2022/11/02 07:19:44;;;;;;;6.72;1.67;;;11.00;95.90;;;;;;4924661;29;20629;-71
2022/11/02 07:22:10;;;;;;;4.70;1.40;;;11.10;95.50;;;;;;4924260;29;20500;-76
2022/11/02 07:24:36;;;;;;;5.20;1.30;;;11.20;95.40;;;;;;4926480;29;20063;-71
2022/11/02 07:27:02;;;;;;;7.47;1.65;;;11.30;95.40;;;;;;4926528;29;20036;-70
2022/11/02 07:29:27;;;;;;;4.93;1.23;;;11.50;95.20;;;;;;4936824;29;20797;-70
2022/11/02 07:31:54;;;;;;;8.70;1.45;;;11.60;95.00;;;;;;4920791;29;20031;-69
2022/11/02 07:34:20;;;;;;;5.05;1.40;;;11.70;94.40;;;;;;4921408;29;20039;-70
2022/11/02 07:36:46;;;;;;;9.80;1.17;;;11.70;94.50;;;;;;4925364;29;20031;-67
2022/11/02 07:39:11;;;;;;;12.30;1.40;;;11.90;94.70;;;;;;4922200;29;20027;-68
2022/11/02 07:41:37;;;;;;;9.52;1.88;;;12.00;94.40;;;;;;4926077;29;20855;-68
2022/11/02 07:44:03;;;;;;;4.72;1.40;;;12.20;94.10;;;;;;4924773;29;20035;-68
2022/11/02 07:46:33;;;;;;;10.77;1.75;;;12.10;93.90;;;;;;4921855;29;20571;-67
2022/11/02 07:48:58;;;;;;;3.47;1.27;;;12.20;93.80;;;;;;4920779;29;20054;-68
2022/11/02 07:51:24;;;;;;;4.97;1.40;;;12.30;93.80;;;;;;4921117;29;20048;-68
2022/11/02 07:53:50;;;;;;;9.40;1.85;;;12.50;93.60;;;;;;4924441;29;20036;-68
2022/11/02 07:56:15;;;;;;;4.97;1.38;;;12.60;93.10;;;;;;4923309;29;20028;-68
2022/11/02 07:58:41;;;;;;;7.93;1.30;;;12.60;92.90;;;;;;4924383;29;20028;-68
2022/11/02 08:01:07;;;;;;;6.07;1.38;;;12.60;93.00;;;;;;4923753;29;20063;-72
2022/11/02 08:03:33;;;;;;;5.53;1.42;;;12.70;92.90;;;;;;4922042;29;20042;-72
2022/11/02 08:06:02;;;;;;;10.68;1.38;;;12.70;92.90;;;;;;4922871;29;20035;-73
2022/11/02 08:08:27;;;;;;;6.03;1.35;;;12.70;92.80;;;;;;4918258;29;20059;-72
2022/11/02 08:10:53;;;;;;;5.30;1.33;;;12.80;93.10;;;;;;4919754;29;20115;-73
2022/11/02 08:13:21;;;;;;;6.85;1.50;;;12.90;93.20;;;;;;4921228;29;20488;-73
2022/11/02 08:15:51;;;;;;;10.60;1.60;;;13.10;92.60;;;;;;4923306;29;20142;-68
2022/11/02 08:18:19;;;;;;;6.88;1.40;;;12.90;92.30;;;;;;4922610;29;20079;-72
2022/11/02 08:20:46;;;;;;;5.85;1.45;;;12.90;92.60;;;;;;4923820;29;20563;-68
2022/11/02 08:23:13;;;;;;;5.50;1.17;;;13.00;92.30;;;;;;4920551;29;20127;-66
2022/11/02 08:25:39;;;;;;;4.88;1.33;;;13.00;92.60;;;;;;4916981;29;20056;-68
2022/11/02 08:28:06;;;;;;;5.85;1.23;;;13.00;92.40;;;;;;4923554;29;20040;-67
2022/11/02 08:30:32;;;;;;;7.93;1.02;;;13.10;92.50;;;;;;4920378;29;20044;-66
2022/11/02 08:33:10;;;;;;;7.55;1.77;;;13.00;92.50;;;;;;4922325;29;20043;-66
2022/11/02 08:35:36;;;;;;;11.77;1.65;;;12.90;92.60;;;;;;4923268;29;20035;-66
2022/11/02 08:38:02;;;;;;;7.68;1.35;;;12.70;92.70;;;;;;4923553;29;20042;-67
2022/11/02 08:40:29;;;;;;;4.55;1.20;;;12.70;92.90;;;;;;4923160;29;20039;-66
2022/11/02 08:42:56;;;;;;;7.47;1.40;;;12.80;93.10;;;;;;4920259;29;20154;-66
2022/11/02 08:45:22;;;;;;;7.63;1.30;;;12.80;92.60;;;;;;4920981;29;20714;-67
2022/11/02 08:47:48;;;;;;;9.27;1.60;;;12.90;92.80;;;;;;4920422;29;20035;-67
2022/11/02 08:50:13;;;;;;;4.13;1.38;;;13.10;92.60;;;;;;4922689;29;20119;-66
2022/11/02 08:52:39;;;;;;;11.30;1.65;;;13.40;92.00;;;;;;4922944;29;20066;-68
2022/11/02 08:55:05;;;;;;;8.35;1.50;;;13.70;91.70;;;;;;4923378;29;20045;-68
2022/11/02 08:57:31;;;;;;;8.77;1.58;;;13.90;90.60;;;;;;4921250;29;20402;-68
2022/11/02 08:59:57;;;;;;;5.82;1.52;;;14.10;90.40;;;;;;4922561;29;20023;-69
2022/11/02 09:02:22;;;;;;;7.32;1.70;;;14.30;89.90;;;;;;4922872;29;20040;-69
2022/11/02 09:04:48;;;;;;;8.38;1.85;;;14.80;88.20;;;;;;4923818;29;20042;-69
2022/11/02 09:07:14;;;;;;;5.80;1.40;;;15.70;84.80;;;;;;4922160;29;20727;-69
2022/11/02 09:09:40;;;;;;;6.88;1.42;;;17.00;82.20;;;;;;4921958;29;20039;-67
2022/11/02 09:12:06;;;;;;;8.75;1.52;;;17.80;76.20;;;;;;4923381;29;20044;-67
2022/11/02 09:14:32;;;;;;;5.85;1.20;;;18.00;74.70;;;;;;4920445;29;20039;-67
2022/11/02 09:16:58;;;;;;;5.50;1.60;;;18.00;71.90;;;;;;4924472;29;20024;-67
2022/11/02 09:19:23;;;;;;;8.85;1.35;;;18.00;74.10;;;;;;4918842;29;20036;-74
2022/11/02 09:21:50;;;;;;;9.10;1.77;;;18.70;71.00;;;;;;4923809;29;20067;-67
2022/11/02 09:24:16;;;;;;;7.15;1.27;;;19.30;68.30;;;;;;4923349;29;20070;-67
2022/11/02 09:26:41;;;;;;;10.02;1.27;;;20.20;66.90;;;;;;4922472;29;20146;-67
2022/11/02 09:29:07;;;;;;;7.20;1.33;;;20.60;64.60;;;;;;4921133;29;20051;-67
2022/11/02 09:31:33;;;;;;;5.38;1.35;;;21.20;62.70;;;;;;4922216;29;20042;-67
2022/11/02 09:33:59;;;;;;;8.68;1.60;;;21.90;60.00;;;;;;4924150;29;20039;-67
2022/11/02 09:36:24;;;;;;;6.20;1.60;;;22.40;57.60;;;;;;4922513;29;20083;-68
2022/11/02 09:38:50;;;;;;;7.78;1.50;;;21.90;57.20;;;;;;4915594;29;20036;-67
2022/11/02 09:41:35;;;;;;;5.20;1.40;;;21.20;58.60;;;;;;4919081;29;20078;-68
2022/11/02 09:44:14;;;;;;;5.55;1.40;;;20.90;62.20;;;;;;4919351;29;20492;-67
2022/11/02 09:46:45;;;;;;;8.55;1.70;;;20.60;60.80;;;;;;4922095;29;20039;-68
2022/11/02 09:49:14;;;;;;;10.60;1.55;;;20.20;61.30;;;;;;4921255;29;20126;-67
2022/11/02 09:51:50;;;;;;;3.58;1.25;;;19.80;62.60;;;;;;4921826;29;20024;-67
2022/11/02 09:54:20;;;;;;;7.38;1.45;;;20.20;64.00;;;;;;4921500;29;20035;-68
2022/11/02 09:56:48;;;;;;;6.13;1.70;;;20.70;63.40;;;;;;4920374;29;20035;-67
2022/11/02 09:59:19;;;;;;;8.48;2.03;;;20.90;61.90;;;;;;4919806;29;20028;-67
2022/11/02 10:01:54;;;;;;;6.38;1.70;;;20.90;59.70;;;;;;4920530;29;20058;-70
2022/11/02 10:04:42;;;;;;;8.05;2.45;;;20.10;62.60;;;;;;4920449;29;20143;-70
2022/11/02 10:07:24;;;;;;;8.07;3.03;;;19.90;62.70;;;;;;4920758;29;20118;-70
2022/11/02 10:10:21;;;;;;;6.97;2.97;;;20.20;63.30;;;;;;4915970;29;20481;-70
2022/11/02 10:13:15;;;;;;;10.82;2.72;;;20.30;61.50;;;;;;4923292;29;20150;-70
2022/11/02 10:15:48;;;;;;;5.72;1.77;;;20.20;61.30;;;;;;4921408;29;20138;-68
2022/11/02 10:18:23;;;;;;;7.35;1.55;;;19.90;61.10;;;;;;4921508;29;20142;-68
2022/11/02 10:20:57;;;;;;;5.53;1.60;;;19.40;63.10;;;;;;4918487;29;20059;-70
2022/11/02 10:23:41;;;;;;;3.88;1.55;;;19.40;63.80;;;;;;4921277;29;20479;-70
2022/11/02 10:26:17;;;;;;;7.90;2.00;;;19.70;63.00;;;;;;4920552;29;20040;-70
2022/11/02 10:28:47;;;;;;;8.68;1.60;;;20.10;61.80;;;;;;4921582;29;20488;-70
2022/11/02 10:31:27;;;;;;;5.05;1.98;;;21.70;59.10;;;;;;4920890;29;20129;-71
2022/11/02 10:33:58;;;;;;;6.07;1.40;;;22.60;55.30;;;;;;4918098;29;20456;-70
2022/11/02 10:36:35;;;;;;;7.88;2.53;;;22.70;53.00;;;;;;4918556;29;20046;-71
2022/11/02 10:39:21;;;;;;;7.05;2.30;;;23.40;52.60;;;;;;4919100;29;20555;-70
2022/11/02 10:42:15;;;;;;;6.28;2.10;;;24.20;50.60;;;;;;4923397;29;20160;-70
2022/11/02 10:44:50;;;;;;;5.78;2.95;;;25.20;48.60;;;;;;4925866;29;20126;-71
2022/11/02 10:47:17;;;;;;;5.30;1.90;;;26.30;45.90;;;;;;4921099;29;20032;-70
2022/11/02 10:49:57;;;;;;;6.72;2.13;;;26.50;45.50;;;;;;4927737;29;20495;-71
2022/11/02 10:52:23;;;;;;;17.40;6.13;;;26.30;43.50;;;;;;4917791;29;20103;-68
2022/11/02 10:54:50;;;;;;;8.40;2.78;;;26.30;44.70;;;;;;4924938;29;20043;-69
2022/11/02 10:57:22;;;;;;;7.60;2.55;;;26.50;44.10;;;;;;4926565;29;20118;-70
2022/11/02 11:00:22;;;;;;;7.45;2.63;;;25.80;45.50;;;;;;4925177;29;20023;-69
2022/11/02 11:03:07;;;;;;;7.00;2.85;;;23.70;49.00;;;;;;4925283;29;20082;-70
2022/11/02 11:05:36;;;;;;;10.02;4.18;;;21.60;55.30;;;;;;4925381;29;20032;-69
2022/11/02 11:08:03;;;;;;;13.85;5.78;;;20.50;58.20;;;;;;4926631;29;20093;-69
2022/11/02 11:10:34;;;;;;;9.77;4.13;;;19.80;60.50;;;;;;4923600;29;20275;-70
2022/11/02 11:13:02;;;;;;;10.85;2.83;;;19.20;61.90;;;;;;4921756;29;20036;-69
2022/11/02 11:15:31;;;;;;;7.90;2.60;;;18.60;64.20;;;;;;4924124;29;20046;-72
2022/11/02 11:17:58;;;;;;;12.02;4.40;;;18.20;64.10;;;;;;4922268;29;20136;-68
2022/11/02 11:20:32;;;;;;;5.63;3.00;;;17.90;66.40;;;;;;4923750;29;20118;-68
2022/11/02 11:23:14;;;;;;;5.93;3.00;;;17.80;67.80;;;;;;4925189;29;20484;-69
2022/11/02 11:25:40;;;;;;;13.40;4.78;;;17.60;69.00;;;;;;4925538;29;20136;-69
2022/11/02 11:28:25;;;;;;;9.15;4.05;;;17.60;68.90;;;;;;4927255;29;20079;-69
2022/11/02 11:31:07;;;;;;;8.98;3.70;;;17.40;67.80;;;;;;4924103;29;20078;-69
2022/11/02 11:33:44;;;;;;;9.10;2.85;;;17.20;69.20;;;;;;4920494;29;20582;-69
2022/11/02 11:36:19;;;;;;;9.25;2.58;;;17.00;71.00;;;;;;4915454;29;20035;-70
2022/11/02 11:38:48;;;;;;;4.03;1.77;;;16.90;71.10;;;;;;4924497;29;20035;-70
2022/11/02 11:41:16;;;;;;;8.07;1.83;;;16.90;71.20;;;;;;4923731;29;20056;-69
2022/11/02 11:43:44;;;;;;;5.00;2.00;;;16.60;71.60;;;;;;4925441;29;20062;-72
2022/11/02 11:46:12;;;;;;;6.35;2.08;;;16.40;73.20;;;;;;4924687;29;20418;-69
2022/11/02 11:48:58;;;;;;;6.88;1.90;;;16.50;73.90;;;;;;4924308;29;20047;-69
2022/11/02 11:51:26;;;;;;;6.27;1.83;;;16.50;71.10;;;;;;4922194;29;20040;-69
2022/11/02 11:54:20;;;;;;;10.23;2.33;;;16.50;71.50;;;;;;4922636;29;20060;-70
2022/11/02 11:56:48;;;;;;;7.18;2.60;;;16.40;70.40;;;;;;4926294;29;20047;-69
2022/11/02 11:59:47;;;;;;;9.65;2.58;;;16.40;70.90;;;;;;4923954;29;20489;-69
2022/11/02 12:02:24;;;;;;;6.22;1.95;;;16.40;70.30;;;;;;4916738;29;20063;-68
2022/11/02 12:04:51;;;;;;;9.05;1.90;;;16.40;69.80;;;;;;4920025;29;20051;-73
2022/11/02 12:07:22;;;;;;;5.78;1.73;;;16.40;68.20;;;;;;4924198;29;20642;-68
2022/11/02 12:10:18;;;;;;;5.82;1.40;;;16.50;70.40;;;;;;4924944;29;20094;-68
2022/11/02 12:12:44;;;;;;;5.28;1.20;;;16.50;70.10;;;;;;4918231;29;20148;-68
2022/11/02 12:15:12;;;;;;;5.00;1.52;;;16.50;68.20;;;;;;4924258;29;20039;-68
2022/11/02 12:17:49;;;;;;;5.53;1.70;;;16.40;67.90;;;;;;4922379;29;20024;-68
2022/11/02 12:20:37;;;;;;;3.40;1.15;;;16.40;66.10;;;;;;4923928;29;20031;-68
2022/11/02 12:23:40;;;;;;;9.68;1.50;;;16.30;67.30;;;;;;4922788;29;20042;-68
2022/11/02 12:26:34;;;;;;;4.40;1.05;;;16.40;66.80;;;;;;4925067;29;20035;-68
2022/11/02 12:29:22;;;;;;;6.78;1.48;;;16.50;66.40;;;;;;4919914;29;20084;-68
2022/11/02 12:32:03;;;;;;;3.25;1.27;;;16.60;66.80;;;;;;4919801;29;20024;-66
2022/11/02 12:34:38;;;;;;;4.45;1.10;;;16.70;65.60;;;;;;4918977;29;20043;-66
2022/11/02 12:37:12;;;;;;;3.38;1.10;;;16.70;65.20;;;;;;4921886;29;20587;-66
2022/11/02 12:40:07;;;;;;;3.45;0.80;;;16.70;65.80;;;;;;4923090;29;20050;-70
2022/11/02 12:42:41;;;;;;;4.30;1.38;;;16.60;64.80;;;;;;4924008;29;20931;-67
2022/11/02 12:45:16;;;;;;;5.47;1.92;;;16.60;63.60;;;;;;4922250;29;20040;-68
2022/11/02 12:47:55;;;;;;;4.43;1.60;;;16.60;64.80;;;;;;4923963;29;20024;-68
2022/11/02 12:50:21;;;;;;;9.88;2.13;;;16.60;65.70;;;;;;4921639;29;20111;-68
2022/11/02 12:53:02;;;;;;;5.78;1.60;;;16.70;65.70;;;;;;4923233;29;20036;-66
2022/11/02 12:55:35;;;;;;;4.40;2.00;;;16.80;65.10;;;;;;4919182;29;20032;-67
2022/11/02 12:58:20;;;;;;;3.45;1.10;;;17.00;65.20;;;;;;4917744;29;20028;-65
2022/11/02 13:00:50;;;;;;;5.45;1.27;;;17.10;65.60;;;;;;4914624;29;20031;-68
2022/11/02 13:03:25;;;;;;;3.35;1.25;;;17.10;64.90;;;;;;4918683;29;20428;-71
2022/11/02 13:05:56;;;;;;;5.55;1.92;;;16.90;64.20;;;;;;4919550;29;20044;-66
2022/11/02 13:08:33;;;;;;;8.77;1.75;;;16.80;64.00;;;;;;4921679;29;21046;-69
2022/11/02 13:11:04;;;;;;;6.93;1.35;;;16.80;65.00;;;;;;4919919;29;20047;-70
2022/11/02 13:13:39;;;;;;;5.60;1.63;;;16.70;64.40;;;;;;4923246;29;20051;-69
2022/11/02 13:16:08;;;;;;;4.30;0.80;;;16.70;64.40;;;;;;4921723;29;20515;-68
2022/11/02 13:18:49;;;;;;;7.45;2.30;;;16.70;65.90;;;;;;4923783;29;20103;-69
2022/11/02 13:21:22;;;;;;;5.30;2.10;;;16.80;65.10;;;;;;4923220;29;20040;-69